createdAt,value
2023-01-07T00:01:57.054Z,99.90
2023-01-07T00:04:27.174Z,99.90
2023-01-07T00:06:57.433Z,99.90
2023-01-07T00:09:27.919Z,99.90
2023-01-07T00:11:58.040Z,99.90
2023-01-07T00:14:28.360Z,99.90
2023-01-07T00:17:00.413Z,99.90
2023-01-07T00:19:30.635Z,99.90
2023-01-07T00:22:00.674Z,99.90
2023-01-07T00:24:30.975Z,99.90
2023-01-07T00:27:01.309Z,99.90
2023-01-07T00:29:31.839Z,99.90
2023-01-07T00:32:03.616Z,99.90
2023-01-07T00:34:34.018Z,99.90
2023-01-07T00:37:17.976Z,99.90
2023-01-07T00:39:48.288Z,99.90
2023-01-07T00:42:35.608Z,99.90
2023-01-07T00:45:06.352Z,99.90
2023-01-07T00:47:38.617Z,99.90
2023-01-07T00:50:09.857Z,99.90
2023-01-07T00:52:40.642Z,99.90
2023-01-07T00:55:12.671Z,99.90
2023-01-07T00:57:43.080Z,99.90
2023-01-07T01:00:17.102Z,99.90
2023-01-07T01:02:49.649Z,99.90
2023-01-07T01:05:20.805Z,99.90
2023-01-07T01:07:51.340Z,99.90
2023-01-07T01:10:22.580Z,99.90
2023-01-07T01:12:53.118Z,99.90
2023-01-07T01:15:25.891Z,99.90
2023-01-07T01:17:58.887Z,99.90
2023-01-07T01:20:29.299Z,99.90
2023-01-07T01:22:59.423Z,99.90
2023-01-07T01:25:29.763Z,99.90
2023-01-07T01:28:00.603Z,99.90
2023-01-07T01:30:31.229Z,99.90
2023-01-07T01:33:04.723Z,99.90
2023-01-07T01:35:35.097Z,99.90
2023-01-07T01:38:05.987Z,99.90
2023-01-07T01:40:36.502Z,99.90
2023-01-07T01:43:23.316Z,99.90
2023-01-07T01:45:53.544Z,99.90
2023-01-07T01:48:25.742Z,99.90
2023-01-07T01:50:57.663Z,99.90
2023-01-07T01:53:31.164Z,99.90
2023-01-07T01:56:05.065Z,99.90
2023-01-07T01:58:39.083Z,99.90
2023-01-07T02:01:10.175Z,99.90
2023-01-07T02:03:42.402Z,99.90
2023-01-07T02:06:25.225Z,99.90
2023-01-07T02:08:56.865Z,99.90
2023-01-07T02:11:42.881Z,99.90
2023-01-07T02:14:26.101Z,99.90
2023-01-07T02:17:02.143Z,99.90
2023-01-07T02:20:16.807Z,99.90
2023-01-07T02:23:37.404Z,99.90
2023-01-07T02:27:04.164Z,99.90
2023-01-07T02:30:18.522Z,99.90
2023-01-07T02:33:20.980Z,99.90
2023-01-07T02:36:14.562Z,99.90
2023-01-07T02:38:58.292Z,99.90
2023-01-07T02:41:36.096Z,99.90
2023-01-07T02:44:11.143Z,99.90
2023-01-07T02:46:46.407Z,99.90
2023-01-07T02:49:20.284Z,99.90
2023-01-07T02:51:53.565Z,99.90
2023-01-07T02:54:25.989Z,99.90
2023-01-07T02:57:37.140Z,99.90
2023-01-07T03:00:28.533Z,99.90
2023-01-07T03:03:16.585Z,99.90
2023-01-07T03:06:01.543Z,99.90
2023-01-07T03:08:47.762Z,99.90
2023-01-07T03:11:21.644Z,99.90
2023-01-07T03:14:02.829Z,99.90
2023-01-07T03:16:37.097Z,99.90
2023-01-07T03:19:12.320Z,99.90
2023-01-07T03:21:43.009Z,99.90
2023-01-07T03:24:15.679Z,99.90
2023-01-07T03:26:48.683Z,99.90
2023-01-07T03:29:21.067Z,99.90
2023-01-07T03:31:58.832Z,99.90
2023-01-07T03:34:31.952Z,99.90
2023-01-07T03:37:05.544Z,99.90
2023-01-07T03:39:40.360Z,99.90
2023-01-07T03:42:30.151Z,99.90
2023-01-07T03:45:02.219Z,99.90
2023-01-07T03:47:36.571Z,99.90
2023-01-07T03:50:08.279Z,99.90
2023-01-07T03:52:41.075Z,99.90
2023-01-07T03:55:13.643Z,99.90
2023-01-07T03:57:44.280Z,99.90
2023-01-07T04:00:17.558Z,99.90
2023-01-07T04:02:55.781Z,99.90
2023-01-07T04:05:31.122Z,99.90
2023-01-07T04:08:02.167Z,99.90
2023-01-07T04:10:38.221Z,99.90
2023-01-07T04:13:08.654Z,99.90
2023-01-07T04:15:39.689Z,99.90
2023-01-07T04:18:10.953Z,99.90
2023-01-07T04:20:41.456Z,99.90
2023-01-07T04:23:11.988Z,99.90
2023-01-07T04:25:44.053Z,99.90
2023-01-07T04:28:15.093Z,99.90
2023-01-07T04:30:45.438Z,99.90
2023-01-07T04:33:15.694Z,99.90
2023-01-07T04:35:48.732Z,99.90
2023-01-07T04:38:23.351Z,99.90
2023-01-07T04:40:55.251Z,99.90
2023-01-07T04:43:26.159Z,99.90
2023-01-07T04:45:57.281Z,99.90
2023-01-07T04:48:27.608Z,99.90
2023-01-07T04:50:57.930Z,99.90
2023-01-07T04:53:34.105Z,99.90
2023-01-07T04:56:08.918Z,99.90
2023-01-07T04:58:40.680Z,99.90
2023-01-07T05:01:11.946Z,99.90
2023-01-07T05:03:42.979Z,99.90
2023-01-07T05:06:13.914Z,99.90
2023-01-07T05:08:44.788Z,99.90
2023-01-07T05:11:22.133Z,99.90
2023-01-07T05:13:55.533Z,99.90
2023-01-07T05:16:28.173Z,99.90
2023-01-07T05:19:02.014Z,99.90
2023-01-07T05:21:34.426Z,99.90
2023-01-07T05:24:04.723Z,99.90
2023-01-07T05:26:36.582Z,99.90
2023-01-07T05:29:07.408Z,99.90
2023-01-07T05:31:37.836Z,99.90
2023-01-07T05:34:08.568Z,99.90
2023-01-07T05:36:39.922Z,99.90
2023-01-07T05:39:10.137Z,99.90
2023-01-07T05:41:42.618Z,99.90
2023-01-07T05:44:12.834Z,99.90
2023-01-07T05:46:43.261Z,99.90
2023-01-07T05:49:13.779Z,99.90
2023-01-07T05:51:43.924Z,99.90
2023-01-07T05:54:14.140Z,99.90
2023-01-07T05:56:46.091Z,99.90
2023-01-07T05:59:16.414Z,99.90
2023-01-07T06:01:46.428Z,99.90
2023-01-07T06:04:16.753Z,99.90
2023-01-07T06:06:46.768Z,99.90
2023-01-07T06:09:16.998Z,99.90
2023-01-07T06:11:49.155Z,99.90
2023-01-07T06:14:19.751Z,99.90
2023-01-07T06:16:51.137Z,99.90
2023-01-07T06:19:23.410Z,99.90
2023-01-07T06:21:53.629Z,99.90
2023-01-07T06:24:23.962Z,99.90
2023-01-07T06:26:55.817Z,99.90
2023-01-07T06:29:26.042Z,99.90
2023-01-07T06:31:56.466Z,99.90
2023-01-07T06:34:26.720Z,99.90
2023-01-07T06:36:57.221Z,99.90
2023-01-07T06:39:27.937Z,99.90
2023-01-07T06:42:00.112Z,99.90
2023-01-07T06:44:30.689Z,99.90
2023-01-07T06:47:00.759Z,99.90
2023-01-07T06:49:31.175Z,99.90
2023-01-07T06:52:01.512Z,99.90
2023-01-07T06:54:31.838Z,99.90
2023-01-07T06:57:03.476Z,99.90
2023-01-07T06:59:33.645Z,99.90
2023-01-07T07:02:04.150Z,99.90
2023-01-07T07:04:34.254Z,99.90
2023-01-07T07:07:04.279Z,99.90
2023-01-07T07:09:34.601Z,99.90
2023-01-07T07:12:07.694Z,99.90
2023-01-07T07:14:38.207Z,99.90
2023-01-07T07:17:08.739Z,99.90
2023-01-07T07:19:39.163Z,99.90
2023-01-07T07:22:09.589Z,99.90
2023-01-07T07:24:40.017Z,99.90
2023-01-07T07:27:14.032Z,99.90
2023-01-07T07:29:44.465Z,99.90
2023-01-07T07:32:14.370Z,99.90
2023-01-07T07:34:44.680Z,99.90
2023-01-07T07:37:14.613Z,99.90
2023-01-07T07:39:44.925Z,99.90
2023-01-07T07:42:16.996Z,99.90
2023-01-07T07:44:48.045Z,99.90
2023-01-07T07:47:18.270Z,99.90
2023-01-07T07:49:48.689Z,99.90
2023-01-07T07:52:19.199Z,99.90
2023-01-07T07:54:49.637Z,99.90
2023-01-07T07:57:27.336Z,99.90
2023-01-07T07:59:58.876Z,99.90
2023-01-07T08:02:29.107Z,99.90
2023-01-07T08:04:59.515Z,99.90
2023-01-07T08:07:32.773Z,99.90
2023-01-07T08:10:06.214Z,99.90
2023-01-07T08:12:39.834Z,99.90
2023-01-07T08:15:12.594Z,99.90
2023-01-07T08:17:43.088Z,99.90
2023-01-07T08:20:14.385Z,99.90
2023-01-07T08:22:44.591Z,99.90
2023-01-07T08:25:14.828Z,99.90
2023-01-07T08:27:58.354Z,99.90
2023-01-07T08:30:29.496Z,99.90
2023-01-07T08:33:00.179Z,99.90
2023-01-07T08:35:30.346Z,99.90
2023-01-07T08:38:05.089Z,99.90
2023-01-07T08:40:35.510Z,99.90
2023-01-07T08:43:08.798Z,99.90
2023-01-07T08:45:41.067Z,99.90
2023-01-07T08:48:11.394Z,99.90
2023-01-07T08:50:42.568Z,99.90
2023-01-07T08:53:14.396Z,99.90
2023-01-07T08:55:45.225Z,99.90
2023-01-07T08:58:17.707Z,99.90
2023-01-07T09:00:48.282Z,99.90
2023-01-07T09:03:18.457Z,99.90
2023-01-07T09:05:49.597Z,99.70
2023-01-07T09:08:19.924Z,99.60
2023-01-07T09:10:50.558Z,99.80
2023-01-07T09:13:22.309Z,99.80
2023-01-07T09:15:53.706Z,99.60
2023-01-07T09:18:24.097Z,99.50
2023-01-07T09:20:54.754Z,99.30
2023-01-07T09:23:24.838Z,99.00
2023-01-07T09:25:54.954Z,98.80
2023-01-07T09:28:29.389Z,98.80
2023-01-07T09:31:00.616Z,98.90
2023-01-07T09:33:31.066Z,98.80
2023-01-07T09:36:02.284Z,98.80
2023-01-07T09:38:33.635Z,98.50
2023-01-07T09:41:04.659Z,98.10
2023-01-07T09:43:59.690Z,97.80
2023-01-07T09:46:33.075Z,97.40
2023-01-07T09:49:05.958Z,97.70
2023-01-07T09:51:41.142Z,97.10
2023-01-07T09:54:22.377Z,97.20
2023-01-07T09:56:53.315Z,97.30
2023-01-07T09:59:24.993Z,97.10
2023-01-07T10:02:00.005Z,97.10
2023-01-07T10:04:39.048Z,97.10
2023-01-07T10:07:18.676Z,96.50
2023-01-07T10:10:04.983Z,96.40
2023-01-07T10:12:43.427Z,96.30
2023-01-07T10:15:40.945Z,96.50
2023-01-07T10:18:40.868Z,96.90
2023-01-07T10:21:18.975Z,96.90
2023-01-07T10:23:51.649Z,97.30
2023-01-07T10:26:32.824Z,97.10
2023-01-07T10:33:25.603Z,97.10
2023-01-07T10:36:03.645Z,97.60
2023-01-07T10:38:39.456Z,97.60
2023-01-07T10:41:15.730Z,97.50
2023-01-07T10:44:02.225Z,97.30
2023-01-07T10:46:45.865Z,97.40
2023-01-07T10:49:35.956Z,97.40
2023-01-07T10:52:27.475Z,97.30
2023-01-07T10:55:14.391Z,97.30
2023-01-07T10:57:44.915Z,97.30
2023-01-07T11:00:17.904Z,97.20
2023-01-07T11:02:53.503Z,97.10
2023-01-07T11:05:27.789Z,96.90
2023-01-07T11:08:02.184Z,96.70
2023-01-07T11:10:35.587Z,96.50
2023-01-07T11:13:11.125Z,96.40
2023-01-07T11:15:47.700Z,96.10
2023-01-07T11:18:23.644Z,95.50
2023-01-07T11:20:56.959Z,95.40
2023-01-07T11:23:38.736Z,95.60
2023-01-07T11:26:22.214Z,95.70
2023-01-07T11:28:56.898Z,96.30
2023-01-07T11:31:47.944Z,96.30
2023-01-07T11:34:22.228Z,96.20
2023-01-07T11:36:54.595Z,95.90
2023-01-07T11:39:26.458Z,95.60
2023-01-07T11:42:00.519Z,95.50
2023-01-07T11:44:30.896Z,95.50
2023-01-07T11:47:01.476Z,95.80
2023-01-07T11:49:33.014Z,94.70
2023-01-07T11:52:05.238Z,94.40
2023-01-07T11:54:35.879Z,93.70
2023-01-07T11:57:21.351Z,93.60
2023-01-07T12:00:07.275Z,93.40
2023-01-07T12:02:37.729Z,93.50
2023-01-07T12:05:24.004Z,93.60
2023-01-07T12:07:58.181Z,93.80
2023-01-07T12:10:35.262Z,93.90
2023-01-07T12:13:08.456Z,93.70
2023-01-07T12:15:50.755Z,94.00
2023-01-07T12:18:43.604Z,93.60
2023-01-07T12:21:32.879Z,93.50
2023-01-07T12:24:20.605Z,93.50
2023-01-07T12:26:57.795Z,93.10
2023-01-07T12:29:42.755Z,92.90
2023-01-07T12:32:24.965Z,91.70
2023-01-07T12:35:14.341Z,91.00
2023-01-07T12:37:57.253Z,90.40
2023-01-07T12:40:35.459Z,88.70
2023-01-07T12:43:23.295Z,88.80
2023-01-07T12:45:57.754Z,89.50
2023-01-07T12:48:38.105Z,90.30
2023-01-07T12:51:16.487Z,89.00
2023-01-07T12:53:52.648Z,87.90
2023-01-07T12:56:29.534Z,87.70
2023-01-07T12:59:05.177Z,86.50
2023-01-07T13:01:39.242Z,86.30
2023-01-07T13:04:18.789Z,86.20
2023-01-07T13:06:55.312Z,85.30
2023-01-07T13:09:32.065Z,85.40
2023-01-07T13:12:40.601Z,81.60
2023-01-07T13:15:21.565Z,81.80
2023-01-07T13:17:55.167Z,82.00
2023-01-07T13:20:43.311Z,78.50
2023-01-07T13:23:23.050Z,74.20
2023-01-07T13:26:06.597Z,77.50
2023-01-07T13:29:04.983Z,76.90
2023-01-07T13:32:01.189Z,77.50
2023-01-07T13:34:42.378Z,79.80
2023-01-07T13:37:28.115Z,82.20
2023-01-07T13:40:20.809Z,82.30
2023-01-07T13:42:57.068Z,80.00
2023-01-07T13:45:31.285Z,78.20
2023-01-07T13:48:05.461Z,78.70
2023-01-07T13:50:39.526Z,80.10
2023-01-07T13:53:31.546Z,81.40
2023-01-07T13:56:33.718Z,79.60
2023-01-07T13:59:04.240Z,79.40
2023-01-07T14:01:58.400Z,80.50
2023-01-07T14:04:49.535Z,81.90
2023-01-07T14:07:20.990Z,83.50
2023-01-07T14:09:51.615Z,85.30
2023-01-07T14:12:53.988Z,87.30
2023-01-07T14:15:45.458Z,87.60
2023-01-07T14:18:59.556Z,86.90
2023-01-07T14:21:48.115Z,88.40
2023-01-07T14:24:39.120Z,88.30
2023-01-07T14:27:31.763Z,88.40
2023-01-07T14:30:21.140Z,90.40
2023-01-07T14:33:00.893Z,90.90
2023-01-07T14:35:40.823Z,91.40
2023-01-07T14:38:53.874Z,91.10
2023-01-07T14:41:24.588Z,91.40
2023-01-07T14:44:28.943Z,92.30
2023-01-07T14:47:00.586Z,92.20
2023-01-07T14:49:57.411Z,92.60
2023-01-07T14:53:10.748Z,92.80
2023-01-07T14:56:02.675Z,93.10
2023-01-07T14:58:46.317Z,93.30
2023-01-07T15:01:43.858Z,93.40
2023-01-07T15:04:44.986Z,93.80
2023-01-07T15:07:23.762Z,94.00
2023-01-07T15:10:17.629Z,94.00
2023-01-07T15:13:19.280Z,94.30
2023-01-07T15:16:06.947Z,94.30
2023-01-07T15:18:49.364Z,94.60
2023-01-07T15:21:32.735Z,94.60
2023-01-07T15:24:11.467Z,94.50
2023-01-07T15:26:52.234Z,94.90
2023-01-07T15:29:35.979Z,94.90
2023-01-07T15:32:18.810Z,95.50
2023-01-07T15:34:50.028Z,95.70
2023-01-07T15:37:21.789Z,95.70
2023-01-07T15:39:58.357Z,95.50
2023-01-07T15:42:35.649Z,95.50
2023-01-07T15:45:18.259Z,95.90
2023-01-07T15:47:50.327Z,95.80
2023-01-07T15:50:32.431Z,96.30
2023-01-07T15:53:06.039Z,96.30
2023-01-07T15:55:41.567Z,96.30
2023-01-07T15:58:20.805Z,96.20
2023-01-07T16:01:06.180Z,96.50
2023-01-07T16:03:42.341Z,96.60
2023-01-07T16:06:34.474Z,96.90
2023-01-07T16:09:18.475Z,96.50
2023-01-07T16:11:51.197Z,96.50
2023-01-07T16:14:25.115Z,96.90
2023-01-07T16:17:20.612Z,97.20
2023-01-07T16:19:52.638Z,97.50
2023-01-07T16:22:25.360Z,97.60
2023-01-07T16:24:56.805Z,97.40
2023-01-07T16:27:31.121Z,97.30
2023-01-07T16:30:03.822Z,97.30
2023-01-07T16:32:35.472Z,97.50
2023-01-07T16:35:09.717Z,97.40
2023-01-07T16:37:42.779Z,97.60
2023-01-07T16:40:26.093Z,97.80
2023-01-07T16:42:56.622Z,97.70
2023-01-07T16:45:34.423Z,98.30
2023-01-07T16:48:20.033Z,98.60
2023-01-07T16:50:53.711Z,98.40
2023-01-07T16:53:30.596Z,98.60
2023-01-07T16:56:20.877Z,98.40
2023-01-07T16:58:54.268Z,98.60
2023-01-07T17:01:35.742Z,98.40
2023-01-07T17:04:11.922Z,98.20
2023-01-07T17:06:44.802Z,98.60
2023-01-07T17:09:28.535Z,98.90
2023-01-07T17:11:59.701Z,98.50
2023-01-07T17:14:52.229Z,98.00
2023-01-07T17:17:32.086Z,97.80
2023-01-07T17:20:16.016Z,98.40
2023-01-07T17:22:48.298Z,98.60
2023-01-07T17:25:23.832Z,99.00
2023-01-07T17:28:00.616Z,99.10
2023-01-07T17:30:37.991Z,99.10
2023-01-07T17:33:25.636Z,99.10
2023-01-07T17:35:58.117Z,99.30
2023-01-07T17:38:28.858Z,99.90
2023-01-07T17:40:59.835Z,99.60
2023-01-07T17:43:35.356Z,99.50
2023-01-07T17:46:08.092Z,99.40
2023-01-07T17:48:47.475Z,99.60
2023-01-07T17:51:18.175Z,99.60
2023-01-07T17:53:50.954Z,99.90
2023-01-07T17:56:22.598Z,99.80
2023-01-07T17:58:55.830Z,99.80
2023-01-07T18:01:28.407Z,99.90
2023-01-07T18:04:10.211Z,99.90
2023-01-07T18:06:42.250Z,99.90
2023-01-07T18:09:14.409Z,99.90
2023-01-07T18:12:04.918Z,99.90
2023-01-07T18:14:35.425Z,99.90
2023-01-07T18:17:07.198Z,99.90
2023-01-07T18:19:39.461Z,99.90
2023-01-07T18:22:10.319Z,99.90
2023-01-07T18:24:40.726Z,99.90
2023-01-07T18:27:12.305Z,99.90
2023-01-07T18:29:42.787Z,99.90
2023-01-07T18:32:13.950Z,99.90
2023-01-07T18:34:50.425Z,99.90
2023-01-07T18:37:21.245Z,99.90
2023-01-07T18:39:51.828Z,99.90
2023-01-07T18:42:22.290Z,99.90
2023-01-07T18:44:52.614Z,99.90
2023-01-07T18:47:22.946Z,99.90
2023-01-07T18:50:01.267Z,99.90
2023-01-07T18:52:35.068Z,99.90
2023-01-07T18:55:05.786Z,99.90
2023-01-07T18:57:36.321Z,99.90
2023-01-07T19:00:09.885Z,99.90
2023-01-07T19:02:40.340Z,99.90
2023-01-07T19:05:13.132Z,99.90
2023-01-07T19:07:43.962Z,99.90
2023-01-07T19:10:16.176Z,99.90
2023-01-07T19:12:46.758Z,99.90
2023-01-07T19:15:17.090Z,99.90
2023-01-07T19:17:47.197Z,99.90
2023-01-07T19:20:20.302Z,99.90
2023-01-07T19:22:50.819Z,99.90
2023-01-07T19:25:21.052Z,99.90
2023-01-07T19:27:51.261Z,99.90
2023-01-07T19:30:40.023Z,99.90
2023-01-07T19:33:10.445Z,99.90
2023-01-07T19:35:42.314Z,99.90
2023-01-07T19:38:13.449Z,99.90
2023-01-07T19:40:45.933Z,99.90
2023-01-07T19:43:16.765Z,99.90
2023-01-07T19:45:57.727Z,99.90
2023-01-07T19:48:28.892Z,99.90
2023-01-07T19:51:03.088Z,99.90
2023-01-07T19:53:34.845Z,99.90
2023-01-07T19:56:07.142Z,99.90
2023-01-07T19:58:38.258Z,99.90
2023-01-07T20:01:10.206Z,99.90
2023-01-07T20:03:41.159Z,99.90
2023-01-07T20:06:15.900Z,99.90
2023-01-07T20:08:47.131Z,99.90
2023-01-07T20:11:18.582Z,99.90
2023-01-07T20:13:50.242Z,99.90
2023-01-07T20:16:23.915Z,99.90
2023-01-07T20:18:57.040Z,99.90
2023-01-07T20:21:29.823Z,99.90
2023-01-07T20:24:00.881Z,99.90
2023-01-07T20:26:33.940Z,99.90
2023-01-07T20:29:04.571Z,99.90
2023-01-07T20:31:35.279Z,99.90
2023-01-07T20:34:05.752Z,99.90
2023-01-07T20:36:37.927Z,99.90
2023-01-07T20:39:08.124Z,99.90
2023-01-07T20:41:39.223Z,99.90
2023-01-07T20:44:11.229Z,99.90
2023-01-07T20:46:42.179Z,99.90
2023-01-07T20:49:13.038Z,99.90
2023-01-07T20:51:45.172Z,99.90
2023-01-07T20:54:15.487Z,99.90
2023-01-07T20:56:46.181Z,99.90
2023-01-07T20:59:16.581Z,99.90
2023-01-07T21:01:49.412Z,99.90
2023-01-07T21:04:19.854Z,99.90
2023-01-07T21:06:51.920Z,99.90
2023-01-07T21:09:22.357Z,99.90
2023-01-07T21:11:52.683Z,99.90
2023-01-07T21:14:23.608Z,99.90
2023-01-07T21:16:54.179Z,99.90
2023-01-07T21:19:24.878Z,99.90
2023-01-07T21:21:56.631Z,99.90
2023-01-07T21:24:27.254Z,99.90
2023-01-07T21:26:57.690Z,99.90
2023-01-07T21:29:28.004Z,99.90
2023-01-07T21:31:58.434Z,99.90
2023-01-07T21:34:28.958Z,99.90
2023-01-07T21:37:01.076Z,99.90
2023-01-07T21:39:31.249Z,99.90
2023-01-07T21:42:01.101Z,99.90
2023-01-07T21:44:32.110Z,99.90
2023-01-07T21:47:02.431Z,99.90
2023-01-07T21:49:33.552Z,99.90
2023-01-07T21:52:05.747Z,99.90
2023-01-07T21:54:36.379Z,99.90
2023-01-07T21:57:06.796Z,99.90
2023-01-07T21:59:37.229Z,99.90
2023-01-07T22:02:07.768Z,99.90
2023-01-07T22:04:41.153Z,99.90
2023-01-07T22:07:15.768Z,99.90
2023-01-07T22:09:47.234Z,99.90
2023-01-07T22:12:18.263Z,99.90
2023-01-07T22:14:48.559Z,99.90
2023-01-07T22:17:19.216Z,99.90
2023-01-07T22:19:49.535Z,99.90
2023-01-07T22:22:21.499Z,99.90
2023-01-07T22:24:51.727Z,99.90
2023-01-07T22:27:21.949Z,99.90
2023-01-07T22:29:52.792Z,99.90
2023-01-07T22:32:22.900Z,99.90
2023-01-07T22:34:53.121Z,99.90
2023-01-07T22:37:27.340Z,99.90
2023-01-07T22:40:00.536Z,99.90
2023-01-07T22:42:36.784Z,99.90
2023-01-07T22:45:13.833Z,99.90
2023-01-07T22:47:47.483Z,99.90
2023-01-07T22:50:18.408Z,99.90
2023-01-07T22:52:50.383Z,99.90
2023-01-07T22:55:20.809Z,99.90
2023-01-07T22:57:51.529Z,99.90
2023-01-07T23:00:43.060Z,99.90
2023-01-07T23:03:14.049Z,99.90
2023-01-07T23:05:44.415Z,99.90
2023-01-07T23:08:16.889Z,99.90
2023-01-07T23:10:47.322Z,99.90
2023-01-07T23:13:18.470Z,99.90
2023-01-07T23:15:48.682Z,99.90
2023-01-07T23:18:18.911Z,99.90
2023-01-07T23:20:49.032Z,99.90
2023-01-07T23:23:24.685Z,99.90
2023-01-07T23:25:55.103Z,99.90
2023-01-07T23:28:25.321Z,99.90
2023-01-07T23:30:55.561Z,99.90
2023-01-07T23:33:25.667Z,99.90
2023-01-07T23:36:03.051Z,99.90
2023-01-07T23:38:35.007Z,99.90
2023-01-07T23:41:06.779Z,99.90
2023-01-07T23:43:37.605Z,99.90
2023-01-07T23:46:10.355Z,99.90
2023-01-07T23:48:41.320Z,99.90
2023-01-07T23:51:13.491Z,99.90
2023-01-07T23:53:45.979Z,99.90
2023-01-07T23:56:19.171Z,99.90
2023-01-07T23:58:50.154Z,99.90
